sensor_id;sensor_type;location;lat;lon;timestamp;P1;durP1;ratioP1;P2;durP2;ratioP2
63882;SDS011;50047;50.596;30.466;2022-07-06T00:01:19;4.00;;;3.10;;
63882;SDS011;50047;50.596;30.466;2022-07-06T00:03:47;4.30;;;3.10;;
63882;SDS011;50047;50.596;30.466;2022-07-06T00:06:21;6.30;;;3.20;;
63882;SDS011;50047;50.596;30.466;2022-07-06T00:08:48;4.80;;;3.70;;
63882;SDS011;50047;50.596;30.466;2022-07-06T00:11:16;7.30;;;3.30;;
63882;SDS011;50047;50.596;30.466;2022-07-06T00:13:43;5.40;;;3.60;;
63882;SDS011;50047;50.596;30.466;2022-07-06T00:16:11;6.30;;;3.50;;
63882;SDS011;50047;50.596;30.466;2022-07-06T00:18:38;6.30;;;3.50;;
63882;SDS011;50047;50.596;30.466;2022-07-06T00:21:05;5.50;;;3.40;;
63882;SDS011;50047;50.596;30.466;2022-07-06T00:23:33;3.70;;;3.20;;
63882;SDS011;50047;50.596;30.466;2022-07-06T00:26:00;6.80;;;3.70;;
63882;SDS011;50047;50.596;30.466;2022-07-06T00:28:28;6.50;;;3.20;;
63882;SDS011;50047;50.596;30.466;2022-07-06T00:30:55;5.10;;;3.30;;
63882;SDS011;50047;50.596;30.466;2022-07-06T00:33:23;3.60;;;3.20;;
63882;SDS011;50047;50.596;30.466;2022-07-06T00:35:50;6.00;;;3.20;;
63882;SDS011;50047;50.596;30.466;2022-07-06T00:38:17;6.10;;;3.30;;
63882;SDS011;50047;50.596;30.466;2022-07-06T00:40:45;5.10;;;3.30;;
63882;SDS011;50047;50.596;30.466;2022-07-06T00:44:22;4.50;;;2.90;;
63882;SDS011;50047;50.596;30.466;2022-07-06T00:46:49;6.10;;;3.10;;
63882;SDS011;50047;50.596;30.466;2022-07-06T00:49:17;6.60;;;3.20;;
63882;SDS011;50047;50.596;30.466;2022-07-06T00:52:03;4.60;;;3.30;;
63882;SDS011;50047;50.596;30.466;2022-07-06T00:54:31;4.50;;;3.20;;
63882;SDS011;50047;50.596;30.466;2022-07-06T00:56:59;7.50;;;3.50;;
63882;SDS011;50047;50.596;30.466;2022-07-06T00:59:27;4.40;;;3.20;;
63882;SDS011;50047;50.596;30.466;2022-07-06T01:01:54;4.80;;;3.30;;
63882;SDS011;50047;50.596;30.466;2022-07-06T01:04:22;6.10;;;3.50;;
63882;SDS011;50047;50.596;30.466;2022-07-06T01:06:49;5.90;;;3.20;;
63882;SDS011;50047;50.596;30.466;2022-07-06T01:09:16;4.10;;;3.30;;
63882;SDS011;50047;50.596;30.466;2022-07-06T01:11:44;6.60;;;3.30;;
63882;SDS011;50047;50.596;30.466;2022-07-06T01:14:12;4.00;;;3.30;;
63882;SDS011;50047;50.596;30.466;2022-07-06T01:16:40;4.60;;;3.00;;
63882;SDS011;50047;50.596;30.466;2022-07-06T01:19:08;7.40;;;3.00;;
63882;SDS011;50047;50.596;30.466;2022-07-06T01:21:37;3.90;;;2.90;;
63882;SDS011;50047;50.596;30.466;2022-07-06T01:24:05;4.80;;;3.30;;
63882;SDS011;50047;50.596;30.466;2022-07-06T01:26:33;4.90;;;3.50;;
63882;SDS011;50047;50.596;30.466;2022-07-06T01:29:01;7.50;;;4.20;;
63882;SDS011;50047;50.596;30.466;2022-07-06T01:31:28;6.80;;;4.20;;
63882;SDS011;50047;50.596;30.466;2022-07-06T01:33:57;6.80;;;3.60;;
63882;SDS011;50047;50.596;30.466;2022-07-06T01:36:25;4.90;;;3.30;;
63882;SDS011;50047;50.596;30.466;2022-07-06T01:38:53;6.60;;;3.80;;
63882;SDS011;50047;50.596;30.466;2022-07-06T01:41:24;5.20;;;3.40;;
63882;SDS011;50047;50.596;30.466;2022-07-06T01:43:52;5.10;;;3.60;;
63882;SDS011;50047;50.596;30.466;2022-07-06T01:46:20;7.70;;;3.40;;
63882;SDS011;50047;50.596;30.466;2022-07-06T01:48:47;3.90;;;3.30;;
63882;SDS011;50047;50.596;30.466;2022-07-06T01:51:14;5.90;;;3.80;;
63882;SDS011;50047;50.596;30.466;2022-07-06T01:53:44;7.10;;;3.70;;
63882;SDS011;50047;50.596;30.466;2022-07-06T01:56:13;8.30;;;3.40;;
63882;SDS011;50047;50.596;30.466;2022-07-06T01:58:42;4.50;;;3.40;;
63882;SDS011;50047;50.596;30.466;2022-07-06T02:01:14;4.80;;;3.30;;
63882;SDS011;50047;50.596;30.466;2022-07-06T02:03:46;4.00;;;3.60;;
63882;SDS011;50047;50.596;30.466;2022-07-06T02:06:14;4.70;;;3.70;;
63882;SDS011;50047;50.596;30.466;2022-07-06T02:08:41;5.70;;;3.70;;
63882;SDS011;50047;50.596;30.466;2022-07-06T02:11:09;4.40;;;3.50;;
63882;SDS011;50047;50.596;30.466;2022-07-06T02:13:38;5.00;;;3.30;;
63882;SDS011;50047;50.596;30.466;2022-07-06T02:16:08;4.40;;;3.70;;
63882;SDS011;50047;50.596;30.466;2022-07-06T02:18:36;6.10;;;3.60;;
63882;SDS011;50047;50.596;30.466;2022-07-06T02:21:04;6.90;;;4.20;;
63882;SDS011;50047;50.596;30.466;2022-07-06T02:23:32;7.30;;;3.90;;
63882;SDS011;50047;50.596;30.466;2022-07-06T02:25:59;4.50;;;3.20;;
63882;SDS011;50047;50.596;30.466;2022-07-06T02:28:28;6.30;;;3.60;;
63882;SDS011;50047;50.596;30.466;2022-07-06T02:30:55;6.10;;;3.60;;
63882;SDS011;50047;50.596;30.466;2022-07-06T02:33:23;8.20;;;3.60;;
63882;SDS011;50047;50.596;30.466;2022-07-06T02:35:50;4.60;;;3.70;;
63882;SDS011;50047;50.596;30.466;2022-07-06T02:38:17;5.40;;;3.50;;
63882;SDS011;50047;50.596;30.466;2022-07-06T02:40:45;4.10;;;3.20;;
63882;SDS011;50047;50.596;30.466;2022-07-06T02:43:13;6.40;;;3.70;;
63882;SDS011;50047;50.596;30.466;2022-07-06T02:45:41;7.30;;;3.70;;
63882;SDS011;50047;50.596;30.466;2022-07-06T02:48:08;4.80;;;3.50;;
63882;SDS011;50047;50.596;30.466;2022-07-06T02:50:36;6.10;;;3.50;;
63882;SDS011;50047;50.596;30.466;2022-07-06T02:53:03;5.40;;;3.50;;
63882;SDS011;50047;50.596;30.466;2022-07-06T02:55:31;6.60;;;3.50;;
63882;SDS011;50047;50.596;30.466;2022-07-06T02:57:59;7.20;;;3.50;;
63882;SDS011;50047;50.596;30.466;2022-07-06T03:00:26;6.00;;;3.50;;
63882;SDS011;50047;50.596;30.466;2022-07-06T03:02:53;6.60;;;3.50;;
63882;SDS011;50047;50.596;30.466;2022-07-06T03:05:22;4.70;;;3.70;;
63882;SDS011;50047;50.596;30.466;2022-07-06T03:07:50;6.30;;;3.50;;
63882;SDS011;50047;50.596;30.466;2022-07-06T03:10:17;5.70;;;3.20;;
63882;SDS011;50047;50.596;30.466;2022-07-06T03:12:45;6.40;;;3.30;;
63882;SDS011;50047;50.596;30.466;2022-07-06T03:15:12;5.70;;;3.60;;
63882;SDS011;50047;50.596;30.466;2022-07-06T03:17:42;6.40;;;3.80;;
63882;SDS011;50047;50.596;30.466;2022-07-06T03:20:10;4.40;;;3.30;;
63882;SDS011;50047;50.596;30.466;2022-07-06T03:22:38;9.60;;;3.60;;
63882;SDS011;50047;50.596;30.466;2022-07-06T03:25:05;5.50;;;3.30;;
63882;SDS011;50047;50.596;30.466;2022-07-06T03:27:34;5.60;;;3.30;;
63882;SDS011;50047;50.596;30.466;2022-07-06T03:30:03;5.60;;;3.30;;
63882;SDS011;50047;50.596;30.466;2022-07-06T03:32:31;5.00;;;3.30;;
63882;SDS011;50047;50.596;30.466;2022-07-06T03:34:59;7.30;;;3.50;;
63882;SDS011;50047;50.596;30.466;2022-07-06T03:37:26;7.50;;;3.70;;
63882;SDS011;50047;50.596;30.466;2022-07-06T03:39:53;6.60;;;3.50;;
63882;SDS011;50047;50.596;30.466;2022-07-06T03:42:21;6.70;;;3.60;;
63882;SDS011;50047;50.596;30.466;2022-07-06T03:44:48;7.20;;;4.00;;
63882;SDS011;50047;50.596;30.466;2022-07-06T03:47:15;7.00;;;3.90;;
63882;SDS011;50047;50.596;30.466;2022-07-06T03:49:44;5.10;;;3.90;;
63882;SDS011;50047;50.596;30.466;2022-07-06T03:52:11;5.90;;;4.80;;
63882;SDS011;50047;50.596;30.466;2022-07-06T03:54:43;10.00;;;5.00;;
63882;SDS011;50047;50.596;30.466;2022-07-06T03:57:11;7.50;;;4.60;;
63882;SDS011;50047;50.596;30.466;2022-07-06T03:59:40;8.20;;;5.20;;
63882;SDS011;50047;50.596;30.466;2022-07-06T04:02:07;7.70;;;5.00;;
63882;SDS011;50047;50.596;30.466;2022-07-06T04:04:36;6.10;;;4.30;;
63882;SDS011;50047;50.596;30.466;2022-07-06T04:07:04;4.80;;;3.30;;
63882;SDS011;50047;50.596;30.466;2022-07-06T04:09:31;5.50;;;3.20;;
63882;SDS011;50047;50.596;30.466;2022-07-06T04:11:58;6.40;;;3.70;;
63882;SDS011;50047;50.596;30.466;2022-07-06T04:14:26;6.30;;;3.40;;
63882;SDS011;50047;50.596;30.466;2022-07-06T04:16:54;6.60;;;3.60;;
63882;SDS011;50047;50.596;30.466;2022-07-06T04:19:22;6.40;;;3.40;;
63882;SDS011;50047;50.596;30.466;2022-07-06T04:21:49;6.90;;;3.30;;
63882;SDS011;50047;50.596;30.466;2022-07-06T04:24:17;4.00;;;3.40;;
63882;SDS011;50047;50.596;30.466;2022-07-06T04:26:44;4.00;;;3.20;;
63882;SDS011;50047;50.596;30.466;2022-07-06T04:29:12;9.40;;;3.40;;
63882;SDS011;50047;50.596;30.466;2022-07-06T04:31:39;13.40;;;3.50;;
63882;SDS011;50047;50.596;30.466;2022-07-06T04:34:06;3.80;;;3.00;;
63882;SDS011;50047;50.596;30.466;2022-07-06T04:36:34;5.30;;;3.10;;
63882;SDS011;50047;50.596;30.466;2022-07-06T04:39:02;8.50;;;3.00;;
63882;SDS011;50047;50.596;30.466;2022-07-06T04:41:29;5.00;;;2.90;;
63882;SDS011;50047;50.596;30.466;2022-07-06T04:43:56;9.30;;;3.40;;
63882;SDS011;50047;50.596;30.466;2022-07-06T04:46:24;13.60;;;3.60;;
63882;SDS011;50047;50.596;30.466;2022-07-06T04:48:52;6.40;;;3.30;;
63882;SDS011;50047;50.596;30.466;2022-07-06T04:51:23;5.10;;;3.20;;
63882;SDS011;50047;50.596;30.466;2022-07-06T04:53:50;4.90;;;3.40;;
63882;SDS011;50047;50.596;30.466;2022-07-06T04:56:18;5.30;;;3.00;;
63882;SDS011;50047;50.596;30.466;2022-07-06T04:58:45;3.80;;;2.80;;
63882;SDS011;50047;50.596;30.466;2022-07-06T05:01:14;7.20;;;2.80;;
63882;SDS011;50047;50.596;30.466;2022-07-06T05:03:41;7.90;;;3.00;;
63882;SDS011;50047;50.596;30.466;2022-07-06T05:06:09;5.30;;;2.90;;
63882;SDS011;50047;50.596;30.466;2022-07-06T05:08:37;5.40;;;2.80;;
63882;SDS011;50047;50.596;30.466;2022-07-06T05:11:05;6.50;;;2.80;;
63882;SDS011;50047;50.596;30.466;2022-07-06T05:13:33;5.10;;;2.80;;
63882;SDS011;50047;50.596;30.466;2022-07-06T05:16:00;7.40;;;2.40;;
63882;SDS011;50047;50.596;30.466;2022-07-06T05:18:28;7.10;;;2.50;;
63882;SDS011;50047;50.596;30.466;2022-07-06T05:20:58;6.20;;;2.60;;
63882;SDS011;50047;50.596;30.466;2022-07-06T05:23:25;5.80;;;2.50;;
63882;SDS011;50047;50.596;30.466;2022-07-06T05:25:54;7.30;;;2.60;;
63882;SDS011;50047;50.596;30.466;2022-07-06T05:28:21;5.00;;;2.80;;
63882;SDS011;50047;50.596;30.466;2022-07-06T05:30:49;6.70;;;2.90;;
63882;SDS011;50047;50.596;30.466;2022-07-06T05:33:17;6.50;;;2.70;;
63882;SDS011;50047;50.596;30.466;2022-07-06T05:35:45;5.00;;;2.70;;
63882;SDS011;50047;50.596;30.466;2022-07-06T05:38:19;5.40;;;2.70;;
63882;SDS011;50047;50.596;30.466;2022-07-06T05:40:48;5.30;;;2.50;;
63882;SDS011;50047;50.596;30.466;2022-07-06T05:43:16;4.50;;;2.80;;
63882;SDS011;50047;50.596;30.466;2022-07-06T05:45:44;9.40;;;2.90;;
63882;SDS011;50047;50.596;30.466;2022-07-06T05:48:11;6.20;;;2.80;;
63882;SDS011;50047;50.596;30.466;2022-07-06T05:51:00;3.80;;;2.50;;
63882;SDS011;50047;50.596;30.466;2022-07-06T05:53:27;4.80;;;2.70;;
63882;SDS011;50047;50.596;30.466;2022-07-06T05:55:55;3.50;;;2.60;;
63882;SDS011;50047;50.596;30.466;2022-07-06T05:58:23;3.90;;;2.60;;
63882;SDS011;50047;50.596;30.466;2022-07-06T06:00:53;5.10;;;2.40;;
63882;SDS011;50047;50.596;30.466;2022-07-06T06:03:21;7.00;;;2.50;;
63882;SDS011;50047;50.596;30.466;2022-07-06T06:05:49;7.20;;;2.40;;
63882;SDS011;50047;50.596;30.466;2022-07-06T06:08:18;6.70;;;2.30;;
63882;SDS011;50047;50.596;30.466;2022-07-06T06:10:46;5.40;;;2.20;;
63882;SDS011;50047;50.596;30.466;2022-07-06T06:13:16;6.30;;;2.30;;
63882;SDS011;50047;50.596;30.466;2022-07-06T06:15:43;3.20;;;2.30;;
63882;SDS011;50047;50.596;30.466;2022-07-06T06:18:11;5.80;;;2.40;;
63882;SDS011;50047;50.596;30.466;2022-07-06T06:20:38;5.40;;;2.10;;
63882;SDS011;50047;50.596;30.466;2022-07-06T06:23:05;3.30;;;1.90;;
63882;SDS011;50047;50.596;30.466;2022-07-06T06:25:34;3.70;;;2.10;;
63882;SDS011;50047;50.596;30.466;2022-07-06T06:28:06;4.30;;;2.20;;
63882;SDS011;50047;50.596;30.466;2022-07-06T06:30:35;2.70;;;2.00;;
63882;SDS011;50047;50.596;30.466;2022-07-06T06:33:10;3.30;;;1.90;;
63882;SDS011;50047;50.596;30.466;2022-07-06T06:35:43;4.70;;;2.10;;
63882;SDS011;50047;50.596;30.466;2022-07-06T06:38:19;7.50;;;2.30;;
63882;SDS011;50047;50.596;30.466;2022-07-06T06:43:15;8.20;;;2.20;;
63882;SDS011;50047;50.596;30.466;2022-07-06T06:45:56;3.20;;;2.00;;
63882;SDS011;50047;50.596;30.466;2022-07-06T06:48:23;4.50;;;2.40;;
63882;SDS011;50047;50.596;30.466;2022-07-06T06:50:51;7.80;;;2.40;;
63882;SDS011;50047;50.596;30.466;2022-07-06T06:53:18;4.80;;;2.50;;
63882;SDS011;50047;50.596;30.466;2022-07-06T06:55:46;7.40;;;2.30;;
63882;SDS011;50047;50.596;30.466;2022-07-06T06:58:13;5.40;;;2.40;;
63882;SDS011;50047;50.596;30.466;2022-07-06T07:00:40;6.60;;;2.00;;
63882;SDS011;50047;50.596;30.466;2022-07-06T07:05:37;3.80;;;2.20;;
63882;SDS011;50047;50.596;30.466;2022-07-06T07:08:04;5.20;;;2.50;;
63882;SDS011;50047;50.596;30.466;2022-07-06T07:10:32;7.80;;;2.60;;
63882;SDS011;50047;50.596;30.466;2022-07-06T07:13:00;7.70;;;2.50;;
63882;SDS011;50047;50.596;30.466;2022-07-06T07:15:27;9.50;;;2.80;;
63882;SDS011;50047;50.596;30.466;2022-07-06T07:17:54;5.40;;;2.70;;
63882;SDS011;50047;50.596;30.466;2022-07-06T07:20:22;5.40;;;2.50;;
63882;SDS011;50047;50.596;30.466;2022-07-06T07:22:49;5.10;;;2.40;;
63882;SDS011;50047;50.596;30.466;2022-07-06T07:25:17;7.80;;;2.80;;
63882;SDS011;50047;50.596;30.466;2022-07-06T07:27:44;5.30;;;2.70;;
63882;SDS011;50047;50.596;30.466;2022-07-06T07:30:11;3.50;;;2.50;;
63882;SDS011;50047;50.596;30.466;2022-07-06T07:32:39;4.60;;;2.50;;
63882;SDS011;50047;50.596;30.466;2022-07-06T07:35:09;7.30;;;2.70;;
63882;SDS011;50047;50.596;30.466;2022-07-06T07:37:37;7.70;;;2.70;;
63882;SDS011;50047;50.596;30.466;2022-07-06T07:40:05;6.00;;;2.80;;
63882;SDS011;50047;50.596;30.466;2022-07-06T07:42:32;7.90;;;2.90;;
63882;SDS011;50047;50.596;30.466;2022-07-06T07:45:00;9.60;;;2.90;;
63882;SDS011;50047;50.596;30.466;2022-07-06T07:47:27;7.80;;;2.80;;
63882;SDS011;50047;50.596;30.466;2022-07-06T07:49:54;7.00;;;3.60;;
63882;SDS011;50047;50.596;30.466;2022-07-06T07:52:22;9.20;;;3.90;;
63882;SDS011;50047;50.596;30.466;2022-07-06T07:54:49;5.90;;;3.40;;
63882;SDS011;50047;50.596;30.466;2022-07-06T07:57:36;6.30;;;3.60;;
63882;SDS011;50047;50.596;30.466;2022-07-06T08:00:04;5.40;;;3.30;;
63882;SDS011;50047;50.596;30.466;2022-07-06T08:02:37;6.70;;;3.20;;
63882;SDS011;50047;50.596;30.466;2022-07-06T08:05:05;7.50;;;3.10;;
63882;SDS011;50047;50.596;30.466;2022-07-06T08:07:33;6.80;;;2.90;;
63882;SDS011;50047;50.596;30.466;2022-07-06T08:10:00;5.10;;;3.20;;
63882;SDS011;50047;50.596;30.466;2022-07-06T08:12:27;3.70;;;3.00;;
63882;SDS011;50047;50.596;30.466;2022-07-06T08:14:54;5.10;;;2.90;;
63882;SDS011;50047;50.596;30.466;2022-07-06T08:17:22;5.20;;;2.90;;
63882;SDS011;50047;50.596;30.466;2022-07-06T08:19:50;4.40;;;3.10;;
63882;SDS011;50047;50.596;30.466;2022-07-06T08:22:17;4.80;;;3.10;;
63882;SDS011;50047;50.596;30.466;2022-07-06T08:24:44;6.40;;;3.20;;
63882;SDS011;50047;50.596;30.466;2022-07-06T08:27:12;7.70;;;3.00;;
63882;SDS011;50047;50.596;30.466;2022-07-06T08:29:39;7.30;;;3.60;;
63882;SDS011;50047;50.596;30.466;2022-07-06T08:32:07;4.90;;;3.10;;
63882;SDS011;50047;50.596;30.466;2022-07-06T08:34:48;9.10;;;3.00;;
63882;SDS011;50047;50.596;30.466;2022-07-06T08:37:18;4.40;;;3.10;;
63882;SDS011;50047;50.596;30.466;2022-07-06T08:39:46;6.10;;;3.00;;
63882;SDS011;50047;50.596;30.466;2022-07-06T08:42:14;9.00;;;3.00;;
63882;SDS011;50047;50.596;30.466;2022-07-06T08:44:43;5.50;;;3.10;;
63882;SDS011;50047;50.596;30.466;2022-07-06T08:47:11;6.10;;;3.40;;
63882;SDS011;50047;50.596;30.466;2022-07-06T08:49:41;6.40;;;3.40;;
63882;SDS011;50047;50.596;30.466;2022-07-06T08:52:10;4.70;;;3.00;;
63882;SDS011;50047;50.596;30.466;2022-07-06T08:54:38;3.90;;;3.20;;
63882;SDS011;50047;50.596;30.466;2022-07-06T08:57:06;3.30;;;3.00;;
63882;SDS011;50047;50.596;30.466;2022-07-06T08:59:34;7.10;;;3.20;;
63882;SDS011;50047;50.596;30.466;2022-07-06T09:02:02;11.50;;;3.40;;
63882;SDS011;50047;50.596;30.466;2022-07-06T09:04:32;6.90;;;3.20;;
63882;SDS011;50047;50.596;30.466;2022-07-06T09:07:01;8.40;;;3.20;;
63882;SDS011;50047;50.596;30.466;2022-07-06T09:09:28;5.20;;;3.00;;
63882;SDS011;50047;50.596;30.466;2022-07-06T09:11:59;6.10;;;2.80;;
63882;SDS011;50047;50.596;30.466;2022-07-06T09:14:30;7.10;;;2.90;;
63882;SDS011;50047;50.596;30.466;2022-07-06T09:17:02;7.90;;;3.30;;
63882;SDS011;50047;50.596;30.466;2022-07-06T09:19:31;8.00;;;3.20;;
63882;SDS011;50047;50.596;30.466;2022-07-06T09:22:00;9.90;;;3.40;;
63882;SDS011;50047;50.596;30.466;2022-07-06T09:24:28;5.10;;;3.10;;
63882;SDS011;50047;50.596;30.466;2022-07-06T09:26:56;3.90;;;2.80;;
63882;SDS011;50047;50.596;30.466;2022-07-06T09:29:28;4.90;;;3.10;;
63882;SDS011;50047;50.596;30.466;2022-07-06T09:32:00;10.00;;;2.80;;
63882;SDS011;50047;50.596;30.466;2022-07-06T09:34:42;5.40;;;2.70;;
63882;SDS011;50047;50.596;30.466;2022-07-06T09:37:11;7.90;;;2.80;;
63882;SDS011;50047;50.596;30.466;2022-07-06T09:39:39;5.20;;;2.70;;
63882;SDS011;50047;50.596;30.466;2022-07-06T09:42:07;3.40;;;2.50;;
63882;SDS011;50047;50.596;30.466;2022-07-06T09:44:38;4.50;;;2.60;;
63882;SDS011;50047;50.596;30.466;2022-07-06T09:47:10;5.30;;;2.90;;
63882;SDS011;50047;50.596;30.466;2022-07-06T09:49:39;10.10;;;3.10;;
63882;SDS011;50047;50.596;30.466;2022-07-06T09:52:07;4.50;;;2.70;;
63882;SDS011;50047;50.596;30.466;2022-07-06T09:54:36;3.70;;;2.90;;
63882;SDS011;50047;50.596;30.466;2022-07-06T09:57:05;4.40;;;2.90;;
63882;SDS011;50047;50.596;30.466;2022-07-06T09:59:35;3.70;;;2.60;;
63882;SDS011;50047;50.596;30.466;2022-07-06T10:02:05;5.20;;;2.80;;
63882;SDS011;50047;50.596;30.466;2022-07-06T10:04:34;7.20;;;2.90;;
63882;SDS011;50047;50.596;30.466;2022-07-06T10:07:02;5.10;;;2.80;;
63882;SDS011;50047;50.596;30.466;2022-07-06T10:09:31;6.50;;;2.80;;
63882;SDS011;50047;50.596;30.466;2022-07-06T10:12:00;8.50;;;2.80;;
63882;SDS011;50047;50.596;30.466;2022-07-06T10:14:29;7.00;;;2.60;;
63882;SDS011;50047;50.596;30.466;2022-07-06T10:16:59;8.50;;;2.90;;
63882;SDS011;50047;50.596;30.466;2022-07-06T10:19:29;5.50;;;2.70;;
63882;SDS011;50047;50.596;30.466;2022-07-06T10:22:01;5.10;;;3.00;;
63882;SDS011;50047;50.596;30.466;2022-07-06T10:24:30;4.20;;;2.60;;
63882;SDS011;50047;50.596;30.466;2022-07-06T10:27:01;4.40;;;3.00;;
63882;SDS011;50047;50.596;30.466;2022-07-06T10:29:30;5.90;;;2.90;;
63882;SDS011;50047;50.596;30.466;2022-07-06T10:31:57;5.80;;;2.60;;
63882;SDS011;50047;50.596;30.466;2022-07-06T10:34:26;6.10;;;2.80;;
63882;SDS011;50047;50.596;30.466;2022-07-06T10:36:54;4.10;;;3.10;;
63882;SDS011;50047;50.596;30.466;2022-07-06T10:39:34;4.00;;;2.90;;
63882;SDS011;50047;50.596;30.466;2022-07-06T10:42:46;6.30;;;2.80;;
63882;SDS011;50047;50.596;30.466;2022-07-06T10:50:50;5.30;;;2.70;;
63882;SDS011;50047;50.596;30.466;2022-07-06T10:53:23;8.30;;;2.80;;
63882;SDS011;50047;50.596;30.466;2022-07-06T10:55:52;5.00;;;3.10;;
63882;SDS011;50047;50.596;30.466;2022-07-06T10:58:40;3.80;;;2.70;;
63882;SDS011;50047;50.596;30.466;2022-07-06T11:01:18;3.80;;;3.00;;
63882;SDS011;50047;50.596;30.466;2022-07-06T11:03:49;5.10;;;2.80;;
63882;SDS011;50047;50.596;30.466;2022-07-06T11:06:23;5.40;;;2.90;;
63882;SDS011;50047;50.596;30.466;2022-07-06T11:08:56;6.70;;;2.80;;
63882;SDS011;50047;50.596;30.466;2022-07-06T11:13:58;6.50;;;2.80;;
63882;SDS011;50047;50.596;30.466;2022-07-06T11:16:29;13.10;;;6.80;;
63882;SDS011;50047;50.596;30.466;2022-07-06T11:19:04;6.70;;;5.20;;
63882;SDS011;50047;50.596;30.466;2022-07-06T11:24:15;7.30;;;3.10;;
63882;SDS011;50047;50.596;30.466;2022-07-06T11:26:44;4.00;;;3.30;;
63882;SDS011;50047;50.596;30.466;2022-07-06T11:29:13;6.40;;;2.80;;
63882;SDS011;50047;50.596;30.466;2022-07-06T11:31:43;5.30;;;3.10;;
63882;SDS011;50047;50.596;30.466;2022-07-06T11:34:13;3.80;;;3.40;;
63882;SDS011;50047;50.596;30.466;2022-07-06T11:36:45;9.60;;;3.40;;
63882;SDS011;50047;50.596;30.466;2022-07-06T11:39:14;7.60;;;3.40;;
63882;SDS011;50047;50.596;30.466;2022-07-06T11:41:42;6.80;;;3.40;;
63882;SDS011;50047;50.596;30.466;2022-07-06T11:44:17;7.50;;;3.20;;
63882;SDS011;50047;50.596;30.466;2022-07-06T11:46:45;7.50;;;3.30;;
63882;SDS011;50047;50.596;30.466;2022-07-06T11:49:12;6.50;;;3.30;;
63882;SDS011;50047;50.596;30.466;2022-07-06T11:51:40;4.30;;;3.00;;
63882;SDS011;50047;50.596;30.466;2022-07-06T11:54:12;4.50;;;3.30;;
63882;SDS011;50047;50.596;30.466;2022-07-06T11:56:57;4.10;;;3.20;;
63882;SDS011;50047;50.596;30.466;2022-07-06T11:59:30;7.00;;;3.70;;
63882;SDS011;50047;50.596;30.466;2022-07-06T12:04:31;7.50;;;3.30;;
63882;SDS011;50047;50.596;30.466;2022-07-06T12:07:13;7.00;;;3.40;;
63882;SDS011;50047;50.596;30.466;2022-07-06T12:09:43;9.20;;;3.50;;
63882;SDS011;50047;50.596;30.466;2022-07-06T12:12:11;4.10;;;2.80;;
63882;SDS011;50047;50.596;30.466;2022-07-06T12:14:40;8.00;;;3.20;;
63882;SDS011;50047;50.596;30.466;2022-07-06T12:17:14;6.80;;;3.40;;
63882;SDS011;50047;50.596;30.466;2022-07-06T12:19:42;6.80;;;3.20;;
63882;SDS011;50047;50.596;30.466;2022-07-06T12:22:10;7.80;;;3.20;;
63882;SDS011;50047;50.596;30.466;2022-07-06T12:24:42;5.90;;;3.40;;
63882;SDS011;50047;50.596;30.466;2022-07-06T12:29:44;4.50;;;3.10;;
63882;SDS011;50047;50.596;30.466;2022-07-06T12:32:19;5.70;;;3.30;;
63882;SDS011;50047;50.596;30.466;2022-07-06T12:35:05;6.30;;;3.50;;
63882;SDS011;50047;50.596;30.466;2022-07-06T12:40:01;6.80;;;3.30;;
63882;SDS011;50047;50.596;30.466;2022-07-06T12:42:29;6.60;;;3.50;;
63882;SDS011;50047;50.596;30.466;2022-07-06T12:44:57;7.30;;;3.60;;
63882;SDS011;50047;50.596;30.466;2022-07-06T12:47:24;4.90;;;3.40;;
63882;SDS011;50047;50.596;30.466;2022-07-06T12:50:05;12.60;;;3.50;;
63882;SDS011;50047;50.596;30.466;2022-07-06T12:52:35;7.10;;;3.50;;
63882;SDS011;50047;50.596;30.466;2022-07-06T12:55:04;7.90;;;3.30;;
63882;SDS011;50047;50.596;30.466;2022-07-06T13:00:12;8.20;;;3.40;;
63882;SDS011;50047;50.596;30.466;2022-07-06T13:02:40;9.20;;;3.10;;
63882;SDS011;50047;50.596;30.466;2022-07-06T13:05:30;7.50;;;3.30;;
63882;SDS011;50047;50.596;30.466;2022-07-06T13:07:57;4.10;;;3.20;;
63882;SDS011;50047;50.596;30.466;2022-07-06T13:10:25;6.60;;;3.50;;
63882;SDS011;50047;50.596;30.466;2022-07-06T13:12:53;5.80;;;3.90;;
63882;SDS011;50047;50.596;30.466;2022-07-06T13:15:20;8.00;;;3.90;;
63882;SDS011;50047;50.596;30.466;2022-07-06T13:17:47;10.20;;;4.00;;
63882;SDS011;50047;50.596;30.466;2022-07-06T13:20:15;9.10;;;4.10;;
63882;SDS011;50047;50.596;30.466;2022-07-06T13:22:44;11.00;;;4.50;;
63882;SDS011;50047;50.596;30.466;2022-07-06T13:25:11;9.30;;;3.80;;
63882;SDS011;50047;50.596;30.466;2022-07-06T13:27:40;9.80;;;4.50;;
63882;SDS011;50047;50.596;30.466;2022-07-06T13:30:07;6.20;;;3.90;;
63882;SDS011;50047;50.596;30.466;2022-07-06T13:32:35;8.40;;;3.70;;
63882;SDS011;50047;50.596;30.466;2022-07-06T13:35:03;8.70;;;3.90;;
63882;SDS011;50047;50.596;30.466;2022-07-06T13:37:30;9.50;;;3.70;;
63882;SDS011;50047;50.596;30.466;2022-07-06T13:39:59;6.00;;;3.50;;
63882;SDS011;50047;50.596;30.466;2022-07-06T13:42:27;4.80;;;3.10;;
63882;SDS011;50047;50.596;30.466;2022-07-06T13:44:54;7.80;;;3.60;;
63882;SDS011;50047;50.596;30.466;2022-07-06T13:47:21;8.80;;;3.50;;
63882;SDS011;50047;50.596;30.466;2022-07-06T13:49:49;7.20;;;3.60;;
63882;SDS011;50047;50.596;30.466;2022-07-06T13:52:16;8.20;;;4.00;;
63882;SDS011;50047;50.596;30.466;2022-07-06T13:54:44;5.50;;;3.20;;
63882;SDS011;50047;50.596;30.466;2022-07-06T13:57:11;5.20;;;2.80;;
63882;SDS011;50047;50.596;30.466;2022-07-06T13:59:38;7.80;;;3.00;;
63882;SDS011;50047;50.596;30.466;2022-07-06T14:02:05;3.20;;;2.60;;
63882;SDS011;50047;50.596;30.466;2022-07-06T14:04:33;6.90;;;2.70;;
63882;SDS011;50047;50.596;30.466;2022-07-06T14:07:01;5.70;;;2.60;;
63882;SDS011;50047;50.596;30.466;2022-07-06T14:09:29;9.30;;;3.10;;
63882;SDS011;50047;50.596;30.466;2022-07-06T14:11:57;7.80;;;4.10;;
63882;SDS011;50047;50.596;30.466;2022-07-06T14:14:24;6.30;;;3.50;;
63882;SDS011;50047;50.596;30.466;2022-07-06T14:16:51;8.40;;;3.80;;
63882;SDS011;50047;50.596;30.466;2022-07-06T14:19:19;5.40;;;3.30;;
63882;SDS011;50047;50.596;30.466;2022-07-06T14:21:48;7.60;;;3.40;;
63882;SDS011;50047;50.596;30.466;2022-07-06T14:24:16;7.60;;;3.10;;
63882;SDS011;50047;50.596;30.466;2022-07-06T14:26:43;6.80;;;2.80;;
63882;SDS011;50047;50.596;30.466;2022-07-06T14:29:10;3.40;;;2.40;;
63882;SDS011;50047;50.596;30.466;2022-07-06T14:31:38;5.50;;;2.70;;
63882;SDS011;50047;50.596;30.466;2022-07-06T14:34:05;4.60;;;2.70;;
63882;SDS011;50047;50.596;30.466;2022-07-06T14:36:32;5.20;;;2.80;;
63882;SDS011;50047;50.596;30.466;2022-07-06T14:39:01;5.00;;;2.70;;
63882;SDS011;50047;50.596;30.466;2022-07-06T14:41:28;4.90;;;2.70;;
63882;SDS011;50047;50.596;30.466;2022-07-06T14:43:55;5.40;;;3.00;;
63882;SDS011;50047;50.596;30.466;2022-07-06T14:46:22;5.60;;;3.20;;
63882;SDS011;50047;50.596;30.466;2022-07-06T14:48:50;3.00;;;2.40;;
63882;SDS011;50047;50.596;30.466;2022-07-06T14:51:17;6.20;;;2.60;;
63882;SDS011;50047;50.596;30.466;2022-07-06T14:53:45;4.00;;;3.00;;
63882;SDS011;50047;50.596;30.466;2022-07-06T14:56:12;4.10;;;3.00;;
63882;SDS011;50047;50.596;30.466;2022-07-06T14:58:39;4.60;;;3.10;;
63882;SDS011;50047;50.596;30.466;2022-07-06T15:01:26;6.00;;;3.40;;
63882;SDS011;50047;50.596;30.466;2022-07-06T15:03:54;7.30;;;3.60;;
63882;SDS011;50047;50.596;30.466;2022-07-06T15:06:21;3.50;;;2.40;;
63882;SDS011;50047;50.596;30.466;2022-07-06T15:09:08;4.20;;;2.40;;
63882;SDS011;50047;50.596;30.466;2022-07-06T15:11:35;4.40;;;2.50;;